Главная страница
METAR-TAF:

METAR-TAF

Аэропорты :

Floyd Bennett Memorial Airport

Glens Falls, Нью-Йорк, США

широта: 43-20-28N, долгота: 073-36-38W, высота над уровнем моря: 100 м

Текущие метеонаблюдения

Эта сводка был подготовлена 8 минут назад, в 19:53 UTC
Ветер 8 Узел от северо-восточный
Температура 25°C
Влажность 41%
Давление 1013 hPa
Видимость: 16.1 км
ясное небо

METAR: KGFL 181953Z AUTO 05008KT 10SM CLR 25/11 A2992 RMK AO2 SLP131 T02500111

Время: 16:01 (20:01 UTC)

Прогноз

Эта сводка был подготовлена 2 часа и 33 минут назад, в 17:28 UTC
Прогноз действительный с 18-го 18 UTC до 19-го 18 UTC
Ветер 7 Узел от северный
Видимость: 10 км
небольшая облачность на высоте 25000 фута
С 19-го 0800 UTC
Ветер Узел от северный
Видимость: 3.2 км
Рассеянная облачность на высоте 300 фута
дымка
С 19-го 1200 UTC
Ветер Узел от северный
Видимость: 10 км
ясное небо

TAF: KGFL 181728Z 1818/1918 35007KT P6SM FEW250 FM190800 00000KT 2SM BR BKN003 FM191200 00000KT P6SM SKC

Метеонаблюдения и прогнозы для более 4000 аэропортов (сводки METAR и TAF).

Имеющиеся станции представлены на карте желтыми и красными точками.

Чтобы увидеть название станции, наведите на нее мышь.

Затем щелкните, чтобы увидеть метеонаблюдения и метеопрогнозы.

Управление картой: чтобы увеличить масштаб, щелкните зеленые кнопки с черным крестиком; чтобы уменьшить масштаб, щелкните зеленую кнопку с тире; для просмотра соседних карт щелкайте зеленые стрелки.


METAR-TAF: